createdAt,value
2019-04-16T00:07:46.997Z,12.30
2019-04-16T00:15:15.509Z,11.90
2019-04-16T00:17:47.293Z,11.90
2019-04-16T00:20:17.751Z,11.90
2019-04-16T00:22:49.590Z,12.00
2019-04-16T00:30:05.094Z,11.80
2019-04-16T00:39:39.902Z,11.40
2019-04-16T00:51:40.409Z,11.80
2019-04-16T00:54:11.362Z,11.90
2019-04-16T00:59:01.861Z,11.70
2019-04-16T01:13:17.318Z,11.60
2019-04-16T01:22:48.057Z,11.20
2019-04-16T01:27:40.101Z,11.20
2019-04-16T01:37:41.689Z,11.30
2019-04-16T01:40:18.414Z,11.30
2019-04-16T01:45:08.280Z,11.40
2019-04-16T01:49:58.758Z,11.60
2019-04-16T01:59:40.090Z,11.50
2019-04-16T02:02:14.566Z,11.80
2019-04-16T02:04:42.249Z,11.60
2019-04-16T02:07:12.529Z,11.30
2019-04-16T02:12:02.937Z,11.60
2019-04-16T02:16:55.671Z,11.40
2019-04-16T02:19:25.370Z,11.20
2019-04-16T02:28:58.962Z,11.20
2019-04-16T02:38:29.845Z,11.00
2019-04-16T11:18:01.586Z,16.70
2019-04-16T11:20:31.664Z,16.70
2019-04-16T11:23:03.292Z,16.70
2019-04-16T11:25:35.206Z,16.80
2019-04-16T11:28:05.370Z,16.90
2019-04-16T11:30:41.275Z,16.80
2019-04-16T11:35:31.627Z,16.70
2019-04-16T11:40:21.876Z,16.80
2019-04-16T11:45:14.126Z,16.80
2019-04-16T11:47:47.957Z,16.80
2019-04-16T11:50:16.189Z,16.90
2019-04-16T11:52:46.293Z,17.00
2019-04-16T11:57:36.482Z,17.00
2019-04-16T12:00:13.611Z,17.00
2019-04-16T12:02:56.975Z,17.00
2019-04-16T12:05:34.603Z,17.00
2019-04-16T12:08:22.511Z,17.10
2019-04-16T12:11:10.272Z,17.20
2019-04-16T12:13:44.938Z,17.10
2019-04-16T12:16:16.655Z,17.30
2019-04-16T12:19:04.479Z,17.40
2019-04-16T12:24:06.726Z,17.20
2019-04-16T12:26:38.314Z,17.30
2019-04-16T12:29:23.228Z,17.40
2019-04-16T12:34:23.009Z,17.40
2019-04-16T12:36:57.724Z,17.40
2019-04-16T12:39:36.034Z,17.40
2019-04-16T12:44:53.349Z,17.40
2019-04-16T12:47:31.148Z,17.40
2019-04-16T12:50:02.746Z,17.60
2019-04-16T12:52:34.327Z,17.60
2019-04-16T12:55:13.385Z,17.60
2019-04-16T12:57:50.755Z,17.60
2019-04-16T13:00:31.862Z,17.70
2019-04-16T13:03:03.566Z,17.70
2019-04-16T13:05:37.932Z,17.70
2019-04-16T13:10:37.575Z,17.80
2019-04-16T13:13:25.272Z,17.70
2019-04-16T13:15:56.932Z,17.80
2019-04-16T13:18:45.142Z,17.50
2019-04-16T13:21:20.073Z,17.90
2019-04-16T13:23:54.393Z,17.80
2019-04-16T13:28:55.154Z,17.70
2019-04-16T13:31:24.160Z,17.60
2019-04-16T13:33:54.143Z,17.60
2019-04-16T13:36:26.913Z,17.80
2019-04-16T13:39:00.305Z,17.80
2019-04-16T13:41:30.314Z,17.80
2019-04-16T13:46:29.511Z,18.00
2019-04-16T13:49:01.161Z,17.80
2019-04-16T13:51:31.981Z,17.80
2019-04-16T13:54:12.536Z,17.70
2019-04-16T13:56:44.181Z,17.70
2019-04-16T13:59:31.989Z,17.70
2019-04-16T14:02:06.323Z,17.70
2019-04-16T14:04:37.505Z,17.80
2019-04-16T14:07:08.522Z,17.70
2019-04-16T14:09:39.195Z,17.60
2019-04-16T14:14:31.144Z,17.70
2019-04-16T14:17:09.329Z,17.60
2019-04-16T14:19:34.838Z,17.70
2019-04-16T14:22:07.474Z,17.60
2019-04-16T14:26:59.801Z,17.60
2019-04-16T14:29:30.742Z,17.60
2019-04-16T14:32:01.886Z,17.60
2019-04-16T14:34:51.975Z,17.60
2019-04-16T14:37:24.458Z,17.60
2019-04-16T14:39:56.465Z,17.60
2019-04-16T14:44:50.837Z,17.50
2019-04-16T14:47:22.082Z,17.50
2019-04-16T14:49:52.226Z,17.50
2019-04-16T14:52:22.213Z,17.50
2019-04-16T14:54:53.887Z,17.50
2019-04-16T14:57:23.868Z,17.50
2019-04-16T15:02:38.782Z,17.60
2019-04-16T15:05:28.251Z,17.70
2019-04-16T15:07:59.926Z,17.80
2019-04-16T15:12:59.516Z,17.80
2019-04-16T15:15:36.996Z,17.80
2019-04-16T15:18:17.901Z,17.90
2019-04-16T15:20:49.529Z,17.70
2019-04-16T15:26:03.570Z,17.80
2019-04-16T15:28:51.645Z,17.60
2019-04-16T15:31:39.434Z,17.60
2019-04-16T15:34:19.813Z,17.80
2019-04-16T15:37:09.842Z,17.80
2019-04-16T15:39:43.339Z,17.70
2019-04-16T15:42:32.199Z,17.70
2019-04-16T15:45:04.113Z,17.70
2019-04-16T15:47:42.878Z,17.60
2019-04-16T15:50:14.789Z,17.80
2019-04-16T15:53:01.473Z,17.60
2019-04-16T15:55:33.169Z,17.60
2019-04-16T15:58:07.834Z,17.60
2019-04-16T16:00:49.115Z,17.40
2019-04-16T16:03:23.417Z,17.30
2019-04-16T16:06:03.922Z,17.30
2019-04-16T16:08:38.521Z,17.20
2019-04-16T16:13:37.351Z,17.10
2019-04-16T16:16:10.093Z,17.20
2019-04-16T16:23:22.836Z,17.30
2019-04-16T16:25:52.765Z,17.30
2019-04-16T16:28:22.771Z,17.30
2019-04-16T16:30:52.779Z,17.30
2019-04-16T16:35:56.956Z,17.20
2019-04-16T16:40:34.644Z,17.30
2019-04-16T16:43:08.192Z,17.20
2019-04-16T16:48:04.597Z,17.10
2019-04-16T16:50:34.770Z,17.00
2019-04-16T16:53:24.246Z,17.10
2019-04-16T16:55:55.998Z,17.10
2019-04-16T16:58:33.601Z,17.00
2019-04-16T17:01:21.597Z,17.00
2019-04-16T17:03:55.951Z,17.00
2019-04-16T17:06:27.569Z,17.00
2019-04-16T17:11:19.612Z,16.80
2019-04-16T17:16:13.252Z,16.70
2019-04-16T17:21:07.610Z,16.70
2019-04-16T17:23:37.609Z,16.70
2019-04-16T17:28:27.744Z,16.60
2019-04-16T17:30:57.806Z,16.60
2019-04-16T17:33:27.889Z,16.60
2019-04-16T17:35:57.949Z,16.50
2019-04-16T17:38:27.962Z,16.50
2019-04-16T17:41:00.249Z,16.40
2019-04-16T17:44:00.557Z,16.40
2019-04-16T17:46:39.936Z,16.40
2019-04-16T17:49:11.525Z,16.50
2019-04-16T17:51:46.086Z,16.30
2019-04-16T17:54:29.718Z,16.40
2019-04-16T17:57:13.629Z,16.20
2019-04-16T17:59:45.351Z,16.20
2019-04-16T18:02:33.340Z,16.20
2019-04-16T18:05:23.531Z,16.20
2019-04-16T18:08:11.173Z,16.10
2019-04-16T18:10:58.675Z,16.10
2019-04-16T18:13:42.369Z,16.00
2019-04-16T18:16:16.608Z,16.00
2019-04-16T18:21:33.754Z,15.90
2019-04-16T18:24:05.480Z,15.90
2019-04-16T18:29:20.289Z,15.80
2019-04-16T18:31:57.603Z,15.80
2019-04-16T18:34:35.128Z,15.80
2019-04-16T18:37:16.496Z,15.70
2019-04-16T18:42:31.394Z,15.90
2019-04-16T18:45:03.121Z,15.70
2019-04-16T18:47:37.426Z,15.70
2019-04-16T18:50:09.912Z,15.80
